createdAt,value
2018-02-14T04:17:25.749Z,8.10
2018-02-14T04:19:51.653Z,9.50
2018-02-14T04:22:17.518Z,7.93
2018-02-14T04:24:43.493Z,11.17
2018-02-14T04:27:09.360Z,10.00
2018-02-14T04:29:35.232Z,11.63
2018-02-14T04:32:01.117Z,11.33
2018-02-14T04:34:27.013Z,8.87
2018-02-14T04:36:52.857Z,8.30
2018-02-14T04:39:18.700Z,8.00
2018-02-14T04:41:44.576Z,9.80
2018-02-14T04:44:10.416Z,8.53
2018-02-14T04:46:36.257Z,10.30
2018-02-14T04:49:02.149Z,11.83
2018-02-14T04:51:27.988Z,10.27
2018-02-14T04:53:53.885Z,8.53
2018-02-14T04:56:19.795Z,8.93
2018-02-14T04:58:45.641Z,9.73
2018-02-14T05:01:11.516Z,9.03
2018-02-14T05:03:37.361Z,8.83
2018-02-14T05:06:03.210Z,9.37
2018-02-14T05:08:29.115Z,10.47
2018-02-14T05:10:54.948Z,7.83
2018-02-14T05:13:20.848Z,8.70
2018-02-14T05:15:46.733Z,9.97
2018-02-14T05:18:12.604Z,10.17
2018-02-14T05:20:38.531Z,10.97
2018-02-14T05:23:04.415Z,13.17
2018-02-14T05:25:30.256Z,13.97
2018-02-14T05:27:56.101Z,14.27
2018-02-14T05:30:22.068Z,12.33
2018-02-14T05:32:48.017Z,11.90
2018-02-14T05:35:13.857Z,11.57
2018-02-14T05:37:39.744Z,11.93
2018-02-14T05:40:05.586Z,11.63
2018-02-14T05:42:31.429Z,11.87
2018-02-14T05:44:57.306Z,12.87
2018-02-14T05:47:23.145Z,12.33
2018-02-14T05:49:48.987Z,13.93
2018-02-14T05:52:14.946Z,13.43
2018-02-14T05:54:40.898Z,11.80
2018-02-14T05:57:06.819Z,11.43
2018-02-14T05:59:32.789Z,11.37
2018-02-14T06:01:58.699Z,9.23
2018-02-14T06:04:24.540Z,13.10
2018-02-14T06:06:50.423Z,15.57
2018-02-14T06:09:16.350Z,9.73
2018-02-14T06:11:42.191Z,11.70
2018-02-14T06:14:08.019Z,11.67
2018-02-14T06:16:33.900Z,14.93
2018-02-14T06:18:59.748Z,12.33
2018-02-14T06:21:25.576Z,10.77
2018-02-14T06:23:51.461Z,11.07
2018-02-14T06:26:17.300Z,13.47
2018-02-14T06:28:43.138Z,12.00
2018-02-14T06:31:09.053Z,12.13
2018-02-14T06:33:34.888Z,9.57
2018-02-14T06:36:00.733Z,10.23
2018-02-14T06:38:26.615Z,9.27
2018-02-14T06:40:52.608Z,12.57
2018-02-14T06:43:18.503Z,9.70
2018-02-14T06:45:44.372Z,10.40
2018-02-14T06:48:10.221Z,9.90
2018-02-14T06:50:36.091Z,9.10
2018-02-14T06:53:01.957Z,12.60
2018-02-14T06:55:27.808Z,10.33
2018-02-14T06:57:53.692Z,7.90
2018-02-14T07:00:19.541Z,11.03
2018-02-14T07:02:45.384Z,9.80
2018-02-14T07:05:11.292Z,9.73
2018-02-14T07:07:37.129Z,10.00
2018-02-14T07:10:03.005Z,11.33
2018-02-14T07:12:28.900Z,9.77
2018-02-14T07:14:54.764Z,10.40
2018-02-14T07:17:20.661Z,10.17
2018-02-14T07:19:46.505Z,10.03
2018-02-14T07:22:12.353Z,9.70
2018-02-14T07:24:38.241Z,15.23
2018-02-14T07:27:04.089Z,9.43
2018-02-14T07:29:30.036Z,12.27
2018-02-14T07:31:55.933Z,11.63
2018-02-14T07:34:21.792Z,13.10
2018-02-14T07:36:47.633Z,12.07
2018-02-14T07:39:13.562Z,11.87
2018-02-14T07:41:39.473Z,11.00
2018-02-14T07:44:05.308Z,13.33
2018-02-14T07:46:31.198Z,11.27
2018-02-14T07:48:57.043Z,16.03
2018-02-14T07:51:22.884Z,27.33
2018-02-14T07:53:48.761Z,24.20
2018-02-14T07:56:14.629Z,21.33
2018-02-14T07:58:40.518Z,20.43
2018-02-14T08:01:06.441Z,19.07
2018-02-14T08:03:32.365Z,19.87
2018-02-14T08:05:58.217Z,22.37
2018-02-14T08:08:24.205Z,19.63
2018-02-14T08:10:50.072Z,22.07
2018-02-14T08:13:15.918Z,20.07
2018-02-14T08:15:41.808Z,16.17
2018-02-14T08:18:07.669Z,22.33
2018-02-14T08:20:33.509Z,19.80
2018-02-14T08:22:59.394Z,22.33
2018-02-14T08:25:25.253Z,16.67
2018-02-14T08:27:51.147Z,16.33
2018-02-14T08:30:16.988Z,17.77
2018-02-14T08:32:42.819Z,16.30
2018-02-14T08:35:08.743Z,15.73
2018-02-14T08:37:34.621Z,15.90
2018-02-14T08:40:00.505Z,18.50
2018-02-14T08:42:26.389Z,14.40
2018-02-14T08:44:52.245Z,17.27
2018-02-14T08:47:18.145Z,18.73
2018-02-14T08:49:43.987Z,16.03
2018-02-14T08:52:09.853Z,23.63
2018-02-14T08:54:35.741Z,21.43
2018-02-14T08:57:01.583Z,19.10
2018-02-14T08:59:27.481Z,25.67
2018-02-14T09:01:53.388Z,21.50
2018-02-14T09:04:19.237Z,19.33
2018-02-14T09:06:45.081Z,29.63
2018-02-14T09:09:10.956Z,26.07
2018-02-14T09:11:36.845Z,25.20
2018-02-14T09:14:02.692Z,24.00
2018-02-14T09:16:28.570Z,20.93
2018-02-14T09:18:54.456Z,22.23
2018-02-14T09:21:20.303Z,18.03
2018-02-14T09:23:46.175Z,21.77
2018-02-14T09:26:12.051Z,14.57
2018-02-14T09:28:37.895Z,16.80
2018-02-14T09:31:03.732Z,16.83
2018-02-14T09:33:29.608Z,17.27
2018-02-14T09:35:55.461Z,22.20
2018-02-14T09:38:21.332Z,17.57
2018-02-14T09:40:47.216Z,21.17
2018-02-14T09:43:13.060Z,20.90
2018-02-14T09:45:38.978Z,21.53
2018-02-14T09:48:04.875Z,16.93
2018-02-14T09:50:30.733Z,25.03
2018-02-14T09:52:56.572Z,22.03
2018-02-14T09:55:22.456Z,22.93
2018-02-14T09:57:48.428Z,19.40
2018-02-14T10:00:14.274Z,26.43
2018-02-14T10:02:40.146Z,19.83
2018-02-14T10:05:06.118Z,26.23
2018-02-14T10:07:31.969Z,22.30
2018-02-14T10:09:57.811Z,16.13
2018-02-14T10:12:23.683Z,18.37
2018-02-14T10:14:49.525Z,38.53
2018-02-14T10:17:15.406Z,149.87
2018-02-14T10:19:41.260Z,64.83
2018-02-14T10:22:07.148Z,24.07
2018-02-14T10:24:32.996Z,21.73
2018-02-14T10:26:58.845Z,34.87
2018-02-14T10:29:24.745Z,33.03
2018-02-14T10:31:50.589Z,26.83
2018-02-14T10:34:16.437Z,20.67
2018-02-14T10:36:42.325Z,21.60
2018-02-14T10:39:08.204Z,29.23
2018-02-14T10:41:34.108Z,25.87
2018-02-14T10:43:59.993Z,38.10
2018-02-14T10:46:25.849Z,47.27
2018-02-14T10:48:51.731Z,65.83
2018-02-14T10:51:17.594Z,343.07
2018-02-14T10:53:43.442Z,191.67
2018-02-14T10:56:09.457Z,192.50
2018-02-14T10:58:35.300Z,130.93
2018-02-14T11:01:01.164Z,300.03
2018-02-14T11:03:33.081Z,93.27
2018-02-14T11:06:05.006Z,34.43
2018-02-14T11:08:30.936Z,36.43
2018-02-14T11:10:56.816Z,35.33
2018-02-14T11:13:22.653Z,25.73
2018-02-14T11:15:48.492Z,19.43
2018-02-14T11:18:14.384Z,30.30
2018-02-14T11:20:40.225Z,24.70
2018-02-14T11:23:06.065Z,19.60
2018-02-14T11:25:31.961Z,20.53
2018-02-14T11:27:57.812Z,26.00
2018-02-14T11:30:23.648Z,17.30
2018-02-14T11:32:49.537Z,23.63
2018-02-14T11:35:15.413Z,16.80
2018-02-14T11:37:41.253Z,20.57
2018-02-14T11:40:07.189Z,16.27
2018-02-14T11:42:33.024Z,21.03
2018-02-14T11:44:58.869Z,20.50
2018-02-14T11:47:24.840Z,21.17
2018-02-14T11:49:50.697Z,18.53
2018-02-14T11:52:16.596Z,21.87
2018-02-14T11:54:42.587Z,17.77
2018-02-14T11:57:08.423Z,19.60
2018-02-14T11:59:34.297Z,16.30
2018-02-14T12:02:00.202Z,15.33
2018-02-14T12:04:26.039Z,15.90
2018-02-14T12:06:52.035Z,18.10
2018-02-14T12:09:18.018Z,20.57
2018-02-14T12:11:43.852Z,16.57
2018-02-14T12:14:09.710Z,14.67
2018-02-14T12:16:35.596Z,15.27
2018-02-14T12:19:01.593Z,15.10
2018-02-14T12:21:27.436Z,15.77
2018-02-14T12:23:53.365Z,11.47
2018-02-14T12:26:19.272Z,11.70
2018-02-14T12:28:45.148Z,15.20
2018-02-14T12:31:11.029Z,14.03
2018-02-14T12:33:36.875Z,11.93
2018-02-14T12:36:02.761Z,18.23
2018-02-14T12:38:28.653Z,19.17
2018-02-14T12:40:54.493Z,12.97
2018-02-14T12:43:20.404Z,14.17
2018-02-14T12:45:46.288Z,13.50
2018-02-14T12:48:12.137Z,13.13
2018-02-14T12:50:37.967Z,8.23
2018-02-14T12:53:03.855Z,7.60
2018-02-14T12:55:29.695Z,9.27
2018-02-14T12:57:55.583Z,7.10
2018-02-14T13:00:21.468Z,15.37
2018-02-14T13:02:47.301Z,15.30
2018-02-14T13:05:13.185Z,8.53
2018-02-14T13:07:39.132Z,9.87
2018-02-14T13:10:04.977Z,11.80
2018-02-14T13:12:30.811Z,10.43
2018-02-14T13:14:56.688Z,11.00
2018-02-14T13:17:22.537Z,11.63
2018-02-14T13:19:48.397Z,10.13
2018-02-14T13:22:14.320Z,7.20
2018-02-14T13:24:40.159Z,14.13
2018-02-14T13:27:06.009Z,7.40
2018-02-14T13:29:31.905Z,4.77
2018-02-14T13:31:57.740Z,8.50
2018-02-14T13:34:23.585Z,9.57
2018-02-14T13:36:49.507Z,7.83
2018-02-14T13:39:15.344Z,10.53
2018-02-14T13:41:41.265Z,9.00
2018-02-14T13:44:07.104Z,11.23
2018-02-14T13:46:32.945Z,12.13
2018-02-14T13:48:58.859Z,11.73
2018-02-14T13:51:24.710Z,8.17
2018-02-14T13:53:50.561Z,13.20
2018-02-14T13:56:16.452Z,6.77
2018-02-14T13:58:42.349Z,7.33
2018-02-14T14:01:08.210Z,8.53
2018-02-14T14:03:34.100Z,11.57
2018-02-14T14:05:59.956Z,8.80
2018-02-14T14:08:25.793Z,8.03
2018-02-14T14:10:51.713Z,10.07
2018-02-14T14:13:17.584Z,9.50
2018-02-14T14:15:43.430Z,8.83
2018-02-14T14:18:09.303Z,6.77
2018-02-14T14:20:35.158Z,11.87
2018-02-14T14:23:01.062Z,10.63
2018-02-14T14:25:26.952Z,9.00
2018-02-14T14:27:52.809Z,9.00
2018-02-14T14:30:18.697Z,10.40
2018-02-14T14:32:44.593Z,7.80
2018-02-14T14:35:10.450Z,8.13
2018-02-14T14:37:36.466Z,8.43
2018-02-14T14:40:02.321Z,9.43
2018-02-14T14:42:28.165Z,8.30
2018-02-14T14:44:54.104Z,8.60
2018-02-14T14:47:19.954Z,8.37
2018-02-14T14:49:45.831Z,8.63
2018-02-14T14:52:11.699Z,8.30
2018-02-14T14:54:37.564Z,8.60
2018-02-14T14:57:03.525Z,12.17
2018-02-14T14:59:29.415Z,13.57
2018-02-14T15:01:55.247Z,10.07
2018-02-14T15:04:21.084Z,8.90
2018-02-14T15:06:46.962Z,10.17
2018-02-14T15:09:12.791Z,8.87
2018-02-14T15:11:38.669Z,9.83
2018-02-14T15:14:04.503Z,11.43
2018-02-14T15:16:30.346Z,14.50
2018-02-14T15:18:56.223Z,11.57
2018-02-14T15:21:22.065Z,9.40
2018-02-14T15:23:47.909Z,10.73
2018-02-14T15:26:13.803Z,8.63
2018-02-14T15:28:39.713Z,7.00
2018-02-14T15:31:05.568Z,8.53
2018-02-14T15:33:31.456Z,8.03
2018-02-14T15:35:57.302Z,7.67
2018-02-14T15:38:23.140Z,6.87
2018-02-14T15:40:49.055Z,8.60
2018-02-14T15:43:14.929Z,8.80
2018-02-14T15:45:40.826Z,8.07
2018-02-14T15:48:06.675Z,12.07
2018-02-14T15:50:32.522Z,11.93
2018-02-14T15:52:58.399Z,11.93
2018-02-14T15:55:24.274Z,11.10
2018-02-14T15:57:50.117Z,8.37
2018-02-14T16:00:16.077Z,7.83
2018-02-14T16:02:41.918Z,7.40
2018-02-14T16:05:07.816Z,8.47
2018-02-14T16:07:33.705Z,8.53
2018-02-14T16:09:59.721Z,8.67
2018-02-14T16:12:25.577Z,10.57
2018-02-14T16:14:51.444Z,11.77
2018-02-14T16:17:17.331Z,11.80
2018-02-14T16:19:43.205Z,11.70
2018-02-14T16:22:09.049Z,16.77
2018-02-14T16:24:34.939Z,11.53
2018-02-14T16:27:00.789Z,13.53
2018-02-14T16:29:26.628Z,14.83
2018-02-14T16:31:52.529Z,10.83
2018-02-14T16:34:18.368Z,11.87
2018-02-14T16:36:44.226Z,14.23
2018-02-14T16:39:10.121Z,13.40
2018-02-14T16:41:36.064Z,15.43
2018-02-14T16:44:01.907Z,19.63
2018-02-14T16:46:27.779Z,16.17
2018-02-14T16:48:53.621Z,13.40
2018-02-14T16:51:19.507Z,17.67
2018-02-14T16:53:45.430Z,15.87
2018-02-14T16:56:11.272Z,19.63
2018-02-14T16:58:37.229Z,21.50
2018-02-14T17:01:03.118Z,21.20
2018-02-14T17:03:28.992Z,20.37
2018-02-14T17:05:54.885Z,20.90
2018-02-14T17:08:21.132Z,22.03
2018-02-14T17:10:46.979Z,24.97
2018-02-14T17:13:12.862Z,21.27
2018-02-14T17:15:38.716Z,23.27
2018-02-14T17:18:04.628Z,20.60
2018-02-14T17:20:30.528Z,18.77
2018-02-14T17:22:56.369Z,23.33
2018-02-14T17:25:22.224Z,21.87
2018-02-14T17:27:48.111Z,21.03
2018-02-14T17:30:13.957Z,19.87
2018-02-14T17:32:39.848Z,22.07
2018-02-14T17:35:05.693Z,20.17
2018-02-14T17:37:31.533Z,17.97
2018-02-14T17:39:57.424Z,17.63
2018-02-14T17:42:23.276Z,20.87
2018-02-14T17:44:49.161Z,29.47
2018-02-14T17:47:15.014Z,22.07
2018-02-14T17:49:40.873Z,22.60
2018-02-14T17:52:06.800Z,25.90
2018-02-14T17:54:32.643Z,23.00
2018-02-14T17:56:58.563Z,24.70
2018-02-14T17:59:24.462Z,23.70
2018-02-14T18:01:50.300Z,21.97
2018-02-14T18:04:16.139Z,25.10
2018-02-14T18:06:42.064Z,27.50
2018-02-14T18:09:07.905Z,23.60
2018-02-14T18:11:33.865Z,23.97
2018-02-14T18:13:59.754Z,25.37
2018-02-14T18:16:25.701Z,25.80
2018-02-14T18:18:51.549Z,24.90
2018-02-14T18:21:17.442Z,24.50
2018-02-14T18:23:43.292Z,20.70
2018-02-14T18:26:09.160Z,29.47
2018-02-14T18:28:35.040Z,32.57
2018-02-14T18:31:00.962Z,27.47
2018-02-14T18:33:26.805Z,26.93
2018-02-14T18:35:52.636Z,32.33
2018-02-14T18:38:18.549Z,27.83
2018-02-14T18:40:44.389Z,28.60
2018-02-14T18:43:10.229Z,28.43
2018-02-14T18:45:36.124Z,29.83
2018-02-14T18:48:01.981Z,29.57
2018-02-14T18:50:27.828Z,27.07
2018-02-14T18:52:53.754Z,25.20
2018-02-14T18:55:19.605Z,23.67
2018-02-14T18:57:45.451Z,23.67
2018-02-14T19:00:11.452Z,24.93
2018-02-14T19:02:37.311Z,25.13
2018-02-14T19:05:03.169Z,27.27
2018-02-14T19:07:29.052Z,34.80
2018-02-14T19:09:54.901Z,31.77
2018-02-14T19:12:20.757Z,32.43
2018-02-14T19:14:46.632Z,32.33
2018-02-14T19:17:12.487Z,34.10
2018-02-14T19:19:38.472Z,30.47
2018-02-14T19:22:04.322Z,31.80
2018-02-14T19:24:30.170Z,29.53
2018-02-14T19:26:56.439Z,32.07
2018-02-14T19:29:22.288Z,32.93
2018-02-14T19:31:48.129Z,28.93
2018-02-14T19:34:14.021Z,33.30
2018-02-14T19:36:39.865Z,32.90
2018-02-14T19:39:06.087Z,30.93
2018-02-14T19:41:32.045Z,26.70
2018-02-14T19:43:58.004Z,33.20
2018-02-14T19:46:23.860Z,32.50
2018-02-14T19:48:49.741Z,33.47
2018-02-14T19:51:15.815Z,34.30
2018-02-14T19:53:41.757Z,33.47
2018-02-14T19:56:07.843Z,37.13
2018-02-14T19:58:33.679Z,34.40
2018-02-14T20:00:59.946Z,28.20
2018-02-14T20:03:26.308Z,28.47
2018-02-14T20:05:52.189Z,28.23
2018-02-14T20:08:18.029Z,35.00
2018-02-14T20:10:43.895Z,34.37
2018-02-14T20:13:09.756Z,37.37
2018-02-14T20:15:36.184Z,40.00
2018-02-14T20:18:02.025Z,42.40
2018-02-14T20:20:27.909Z,46.70
2018-02-14T20:22:53.748Z,51.20
2018-02-14T20:25:19.692Z,55.73
2018-02-14T20:27:45.889Z,50.17
2018-02-14T20:30:11.766Z,56.60
2018-02-14T20:32:37.658Z,57.13
2018-02-14T20:35:03.535Z,52.03
2018-02-14T20:37:29.384Z,60.40
2018-02-14T20:39:55.581Z,47.03
2018-02-14T20:42:21.469Z,58.17
2018-02-14T20:44:47.317Z,46.63
2018-02-14T20:47:13.221Z,39.83
2018-02-14T20:49:39.511Z,52.47
2018-02-14T20:52:05.364Z,67.13
2018-02-14T20:54:31.235Z,33.40
2018-02-14T20:56:57.125Z,37.30
2018-02-14T20:59:22.976Z,41.73
2018-02-14T21:01:48.928Z,46.13
2018-02-14T21:04:18.607Z,35.07
2018-02-14T21:06:44.472Z,28.87
2018-02-14T21:09:10.410Z,42.30
2018-02-14T21:11:36.303Z,32.13
2018-02-14T21:14:02.221Z,32.23
2018-02-14T21:16:28.089Z,35.80
2018-02-14T21:18:53.968Z,37.93
2018-02-14T21:21:19.901Z,40.50
2018-02-14T21:23:46.252Z,38.33
2018-02-14T21:26:12.128Z,53.17
2018-02-14T21:28:38.040Z,36.63
2018-02-14T21:31:04.245Z,38.93
2018-02-14T21:33:30.180Z,31.13
2018-02-14T21:35:56.036Z,30.73
2018-02-14T21:38:21.899Z,24.77
2018-02-14T21:40:47.887Z,29.30
2018-02-14T21:43:13.773Z,31.63
2018-02-14T21:45:39.644Z,31.70
2018-02-14T21:48:05.561Z,45.63
2018-02-14T21:50:31.513Z,30.93
2018-02-14T21:52:57.520Z,32.97
2018-02-14T21:55:23.409Z,37.27
2018-02-14T21:57:49.289Z,41.00
2018-02-14T22:00:15.277Z,30.30
2018-02-14T22:02:41.152Z,41.00
2018-02-14T22:05:07.107Z,32.20
2018-02-14T22:07:33.011Z,38.40
2018-02-14T22:09:58.892Z,39.03
2018-02-14T22:12:24.829Z,41.13
2018-02-14T22:14:50.700Z,30.30
2018-02-14T22:17:17.393Z,31.90
2018-02-14T22:19:43.307Z,25.30
2018-02-14T22:22:09.173Z,31.10
2018-02-14T22:24:35.050Z,35.87
2018-02-14T22:27:01.068Z,35.73
2018-02-14T22:29:26.941Z,48.93
2018-02-14T22:31:52.812Z,41.17
2018-02-14T22:34:18.753Z,38.67
2018-02-14T22:36:44.620Z,45.37
2018-02-14T22:39:10.529Z,47.37
2018-02-14T22:41:36.401Z,39.97
2018-02-14T22:44:02.325Z,40.93
2018-02-14T22:46:28.193Z,38.53
2018-02-14T22:48:54.087Z,47.30
2018-02-14T22:51:19.960Z,42.43
2018-02-14T22:53:45.884Z,37.07
2018-02-14T22:56:11.752Z,42.73
2018-02-14T22:58:37.640Z,46.23
2018-02-14T23:01:03.556Z,36.03
2018-02-14T23:03:29.469Z,43.07
2018-02-14T23:05:55.369Z,38.17
2018-02-14T23:08:21.237Z,38.87
2018-02-14T23:10:47.156Z,29.67
2018-02-14T23:13:13.036Z,42.30
2018-02-14T23:15:38.960Z,45.93
2018-02-14T23:18:04.834Z,39.40
2018-02-14T23:20:30.708Z,45.23
2018-02-14T23:22:56.628Z,43.93
2018-02-14T23:25:22.492Z,42.67
2018-02-14T23:27:48.364Z,48.67
2018-02-14T23:30:14.300Z,41.40
2018-02-14T23:32:40.169Z,43.50
2018-02-14T23:35:06.032Z,27.07
2018-02-14T23:37:31.949Z,36.53
2018-02-14T23:39:57.810Z,30.07
2018-02-14T23:42:23.681Z,34.90
2018-02-14T23:44:49.696Z,46.47
2018-02-14T23:47:15.567Z,33.27
2018-02-14T23:49:41.434Z,35.47
2018-02-14T23:52:07.337Z,38.23
2018-02-14T23:54:33.248Z,43.43
2018-02-14T23:56:59.173Z,34.33
2018-02-14T23:59:25.039Z,34.33
